• Join FlightAware (Why Join?)
  • Login
  • US Flag 
01:44PM EDT


 

Airport Tracker/Info


-or-


 

Live Flight TrackerFlight Track Log ✈ CAL211 ✈ 01-Apr-2014 ✈ RCSS / TSA - ZSFZ / FOC

Flight Track Log - Related Links

Times and Time Zones

All times are in EDT time to prevent confusion due to time zone crossing. See the CAL211 flight status page for this flight to view local times or setup timezone preferences in your user account.

Time Position Orientation Groundspeed Altitude Reporting Facility
EDT Latitude Longitude Course Direction KTS MPH feet Rate Location/Type
08:06PM 25.1424 121.3956 297° West  Level Estimated
08:07PM 25.1606 121.3566 297° West  Level Estimated
08:08PM 25.1788 121.3175 297° West  Level Estimated
08:09PM 25.1970 121.2784 297° West  Level Estimated
08:10PM 25.2151 121.2393 297° West  Level Estimated
08:11PM 25.2333 121.2002 297° West  Level Estimated
08:12PM 25.2515 121.1611 297° West  Level Estimated
08:13PM 25.2696 121.1220 297° West  Level Estimated
08:14PM 25.2878 121.0829 297° West  Level Estimated
08:15PM 25.3059 121.0437 297° West  Level Estimated
08:16PM 25.3240 121.0046 297° West  Level Estimated
08:17PM 25.3421 120.9654 297° West  Level Estimated
08:18PM 25.3602 120.9263 297° West  Level Estimated
08:19PM 25.3783 120.8871 297° West  Level Estimated
08:20PM 25.3963 120.8479 297° West  Level Estimated
08:21PM 25.4144 120.8087 297° West  Level Estimated
08:22PM 25.4324 120.7694 297° West  Level Estimated
08:23PM 25.4505 120.7302 297° West  Level Estimated
08:24PM 25.4685 120.6910 297° West  Level Estimated
08:25PM 25.4865 120.6517 297° West  Level Estimated
08:26PM 25.5046 120.6124 297° West  Level Estimated
08:27PM 25.5226 120.5732 297° West  Level Estimated
08:28PM 25.5406 120.5339 297° West  Level Estimated
08:29PM 25.5585 120.4946 297° West  Level Estimated
08:30PM 25.5765 120.4552 297° West  Level Estimated
08:31PM 25.5945 120.4159 297° West  Level Estimated
08:32PM 25.6124 120.3766 297° West  Level Estimated
08:33PM 25.6303 120.3372 297° West  Level Estimated
08:34PM 25.6483 120.2979 297° West  Level Estimated
08:35PM 25.6662 120.2585 297° West  Level Estimated
08:36PM 25.6841 120.2191 297° West  Level Estimated
08:37PM 25.7020 120.1797 297° West  Level Estimated
08:38PM 25.7199 120.1403 297° West  Level Estimated
08:39PM 25.7377 120.1009 297° West  Level Estimated
08:40PM 25.7556 120.0614 297° West  Level Estimated
08:41PM 25.7735 120.0220 297° West  Level Estimated
08:42PM 25.7913 119.9825 297° West  Level Estimated
08:43PM 25.8091 119.9430 297° West  Level Estimated
08:44PM 25.8270 119.9036 297° West  Level Estimated
08:45PM 25.8448 119.8641 297° West  Level Estimated
08:46PM 25.8626 119.8246 297° West  Level Estimated
08:47PM 25.8804 119.7850 297° West  Level Estimated
08:48PM 25.8981 119.7455 297° West  Level Estimated
08:49PM 25.9159 119.7060 297° West  Level Estimated
08:50PM 25.9336 119.6664 297° West  Level Estimated
08:51PM 25.9351 119.6633 297° West  Level Estimated
08:52PM 25.9351 119.6633 North  Level Estimated
08:53PM 25.9351 119.6633 North  Level Estimated
08:54PM 25.9351 119.6633 North  Level Estimated
08:55PM 25.9351 119.6633 North  Level Estimated
08:56PM 25.9351 119.6633 North  Level Estimated
08:57PM 25.9351 119.6633 North  Level Estimated
08:58PM 25.9351 119.6633 North  Level Estimated
08:59PM 25.9351 119.6633 North  Level Estimated
09:00PM 25.9351 119.6633 North  Level Estimated
09:01PM 25.9351 119.6633 North  Level Estimated
09:02PM 25.9351 119.6633 North  Level Estimated
09:03PM 25.9351 119.6633 North  Level Estimated
09:04PM 25.9351 119.6633 North  Level Estimated
09:05PM 25.9351 119.6633 North  Level Estimated
09:06PM 25.9351 119.6633 North  Level Estimated